Ampthill, Virginia
Current Conditions -  °F | °C
As of 7:54 AM on Wednesday 22 Oct 2014 (Local Time) from KRIC Reporting Station
Light Rain Light Rain  
Wind Chill: 12°   Ceiling: 1500
Heat Index: 12°   Visibility: 5mi
Dew Point: 10°   Wind: 14mph
Humidity: 89%   Direction: 320°NW
Pressure: 29.89"   Gusts: NA
Location:  37.4513°N, 77.4708°W
Report Text: KRIC 221154Z 32012KT 5SM -RA BR FEW009 BKN015 OVC025 12/10 A2989 RMK AO2 SLP124 P0005 60008 70012 T01170100 10128 20111 51008
Loading
Personal Weather Stations






























Interactive Weather Map
Tropical Storm Tracking
New forecast layout! Learn more

10-Day Weather Forecast

Advertisements
Track Severe Weather on mobile